KHJO

Details ICAO KHJO
Name HANFORD MUNI
Region United States
Timezone America/Los_Angeles (UTC-8.0)
Plans Departing 3
Arriving 0
Stats Elevation 244 ft / 74 m (AMSL)
Location 36.316722° -119.627652°
Runways 1
Magnetic Variation 12.720° E
Sunrise 2017-12-13 15:02:56 UTC / 2017-12-13 07:02:56 Local
Sunset 2017-12-14 00:45:38 UTC / 2017-12-13 16:45:38 Local
Advertisement - Login to hide

Runways

ID Width Length Bearing (true) Bearing (mag) Surface Threshold Offset Overrun Length
14 75 ft / 23 m 5,182 ft / 1,579 m 151.67° 138.95° Asphalt 0 ft / 0 m 0 ft / 0 m
32 75 ft / 23 m 5,182 ft / 1,579 m 331.68° 318.96° Asphalt 284 ft / 87 m 0 ft / 0 m

Map

Weather


0- 5 10 15 20 25 30 35+ Temperature / ° C

Clouds and Precipitation
Forecast for 2017-12-14 00:00 UTC. Updated 2 hours ago

Ground ~20,000 ft ~40,000 ft Winds

METAR

KHJO 132253Z AUTO 00000KT 4SM HZ CLR 17/02 A3008 RMK AO2 SLP190 T01670017

TAF

Not found

Frequencies

Recorded 134.75 MHz ASOS
Approach 123.90 MHz FRESNO APP/DEP
Unicom 122.80 MHz CTAF/UNICOM
Warning: Do not use this data for real-world aviation or navigation. No guarantee of current accuracy is given.